Time;durP1;ratioP1;P1;durP2;ratioP2;P2;SDS_P1;SDS_P2;PMS_P1;PMS_P2;Temp;Humidity;BMP_temperature;BMP_pressure;BME280_temperature;BME280_humidity;BME280_pressure;Samples;Min_cycle;Max_cycle;Signal;HPM_P1;HPM_P2
2023/10/25 00:01:46;;;;;;;5.20;2.47;;;;;;;12.83;100.00;95260.63;5034996;28;20231;-68
2023/10/25 00:04:13;;;;;;;3.77;2.17;;;;;;;12.87;100.00;95258.41;5036719;28;20228;-69
2023/10/25 00:06:39;;;;;;;4.70;2.27;;;;;;;12.89;100.00;95261.63;5036313;28;20232;-68
2023/10/25 00:09:07;;;;;;;4.87;2.60;;;;;;;12.97;100.00;95253.41;5036634;28;20671;-68
2023/10/25 00:11:34;;;;;;;5.10;2.90;;;;;;;12.85;100.00;95245.38;5035540;28;20209;-68
2023/10/25 00:14:01;;;;;;;6.17;2.43;;;;;;;12.83;100.00;95255.34;5036533;28;20227;-68
2023/10/25 00:16:27;;;;;;;3.57;2.40;;;;;;;12.84;100.00;95258.78;5036010;28;20213;-71
2023/10/25 00:18:54;;;;;;;3.30;2.30;;;;;;;12.82;100.00;95252.91;5036187;28;20229;-69
2023/10/25 00:21:21;;;;;;;3.90;2.47;;;;;;;12.83;100.00;95251.88;5035402;28;21131;-68
2023/10/25 00:23:47;;;;;;;3.43;2.17;;;;;;;12.78;100.00;95249.06;5035728;28;20225;-71
2023/10/25 00:26:15;;;;;;;3.50;2.53;;;;;;;12.91;100.00;95243.72;5036323;28;20205;-70
2023/10/25 00:28:41;;;;;;;3.63;2.40;;;;;;;12.72;100.00;95249.13;5035657;28;20201;-68
2023/10/25 00:31:08;;;;;;;3.53;1.97;;;;;;;12.70;100.00;95241.38;5035817;28;20582;-69
2023/10/25 00:33:34;;;;;;;4.37;2.00;;;;;;;12.66;100.00;95244.69;5034962;28;20212;-68
2023/10/25 00:36:01;;;;;;;3.27;2.20;;;;;;;12.59;100.00;95246.53;5036536;28;20205;-68
2023/10/25 00:38:28;;;;;;;4.20;2.43;;;;;;;12.53;100.00;95245.56;5035702;28;20205;-68
2023/10/25 00:40:54;;;;;;;4.30;2.43;;;;;;;12.56;100.00;95246.97;5034956;28;20256;-70
2023/10/25 00:43:22;;;;;;;4.17;2.40;;;;;;;13.06;100.00;95252.13;5036297;28;20216;-68
2023/10/25 00:46:01;;;;;;;3.03;2.20;;;;;;;13.19;100.00;95252.03;5035923;28;20229;-69
2023/10/25 00:48:29;;;;;;;4.53;2.77;;;;;;;12.98;100.00;95257.69;5035107;28;20217;-68
2023/10/25 00:50:56;;;;;;;3.60;2.23;;;;;;;12.52;100.00;95264.28;5035092;28;20212;-70
2023/10/25 00:53:25;;;;;;;3.00;2.00;;;;;;;12.47;100.00;95264.91;5035249;28;20208;-73
2023/10/25 00:55:53;;;;;;;4.50;2.60;;;;;;;12.42;100.00;95271.84;5035340;28;20212;-71
2023/10/25 00:58:23;;;;;;;4.20;2.33;;;;;;;12.27;100.00;95271.31;5035117;28;20205;-71
2023/10/25 01:00:50;;;;;;;3.37;2.20;;;;;;;12.33;100.00;95259.91;5035520;28;20205;-73
2023/10/25 01:03:17;;;;;;;2.90;1.90;;;;;;;12.32;100.00;95264.38;5035036;28;20205;-70
2023/10/25 01:05:44;;;;;;;2.47;1.93;;;;;;;12.28;100.00;95252.63;5035457;28;20221;-70
2023/10/25 01:08:10;;;;;;;3.53;2.03;;;;;;;12.22;100.00;95250.81;5035581;28;21086;-72
2023/10/25 01:10:37;;;;;;;2.43;1.90;;;;;;;12.21;100.00;95243.13;5034575;28;20209;-70
2023/10/25 01:13:04;;;;;;;3.50;2.10;;;;;;;12.16;100.00;95244.78;5034799;28;20207;-72
2023/10/25 01:15:32;;;;;;;2.43;2.00;;;;;;;12.28;100.00;95246.50;5036390;28;20221;-72
2023/10/25 01:17:58;;;;;;;2.80;1.70;;;;;;;12.12;100.00;95247.00;5038390;28;20204;-71
2023/10/25 01:20:25;;;;;;;3.87;2.13;;;;;;;12.10;100.00;95240.31;5038319;28;20680;-71
2023/10/25 01:22:53;;;;;;;2.63;1.97;;;;;;;12.18;100.00;95231.13;5039179;28;20225;-72
2023/10/25 01:25:19;;;;;;;3.23;2.10;;;;;;;12.07;100.00;95232.81;5039487;28;20614;-71
2023/10/25 01:27:46;;;;;;;4.37;2.10;;;;;;;12.01;100.00;95231.03;5039379;28;20201;-70
2023/10/25 01:30:13;;;;;;;3.53;2.33;;;;;;;12.09;100.00;95236.06;5038679;28;20685;-71
2023/10/25 01:32:40;;;;;;;2.50;1.93;;;;;;;11.93;100.00;95225.97;5039663;28;20200;-71
2023/10/25 01:35:08;;;;;;;2.53;1.60;;;;;;;12.00;100.00;95224.13;5038893;28;20228;-70
2023/10/25 01:37:35;;;;;;;3.27;2.10;;;;;;;11.81;100.00;95223.19;5039395;28;20205;-70
2023/10/25 01:40:04;;;;;;;3.90;1.80;;;;;;;11.93;100.00;95220.69;5038440;28;20205;-72
2023/10/25 01:42:30;;;;;;;2.10;1.60;;;;;;;11.74;100.00;95221.59;5039343;28;20350;-71
2023/10/25 01:44:57;;;;;;;2.90;1.93;;;;;;;11.75;100.00;95223.22;5039126;28;20231;-70
2023/10/25 01:47:24;;;;;;;3.90;2.10;;;;;;;11.64;100.00;95215.94;5038972;28;20215;-70
2023/10/25 01:49:50;;;;;;;2.63;1.53;;;;;;;11.64;100.00;95206.16;5038740;28;20201;-71
2023/10/25 01:52:17;;;;;;;2.90;1.90;;;;;;;11.68;100.00;95204.75;5038070;28;20207;-73
2023/10/25 01:54:45;;;;;;;4.77;2.70;;;;;;;11.72;100.00;95198.03;5038915;28;20225;-70
2023/10/25 01:57:13;;;;;;;5.40;3.00;;;;;;;11.81;100.00;95198.59;5039100;28;20201;-71
2023/10/25 01:59:40;;;;;;;4.03;2.70;;;;;;;11.59;100.00;95197.25;5038229;28;20205;-72
2023/10/25 02:02:07;;;;;;;3.23;2.03;;;;;;;11.53;100.00;95208.63;5038203;28;20727;-71
2023/10/25 02:04:33;;;;;;;4.47;2.40;;;;;;;11.66;100.00;95203.34;5038489;28;20664;-70
2023/10/25 02:07:00;;;;;;;2.53;1.70;;;;;;;11.62;100.00;95213.50;5038561;28;20714;-71
2023/10/25 02:09:26;;;;;;;4.70;2.00;;;;;;;11.55;100.00;95207.41;5038647;28;20292;-73
2023/10/25 02:11:53;;;;;;;1.80;1.50;;;;;;;11.57;100.00;95215.16;5038300;28;20256;-73
2023/10/25 02:14:21;;;;;;;2.87;1.90;;;;;;;11.70;100.00;95209.81;5038383;28;20247;-70
2023/10/25 02:16:47;;;;;;;4.17;2.43;;;;;;;11.42;100.00;95211.91;5038290;28;20228;-71
2023/10/25 02:19:15;;;;;;;2.00;1.50;;;;;;;11.57;100.00;95201.97;5038089;28;20558;-72
2023/10/25 02:21:41;;;;;;;2.93;1.70;;;;;;;11.32;100.00;95215.97;5037447;28;20240;-71
2023/10/25 02:24:10;;;;;;;2.83;2.10;;;;;;;11.38;100.00;95226.53;5037796;28;20214;-71
2023/10/25 02:26:37;;;;;;;2.87;2.10;;;;;;;11.25;100.00;95234.47;5037712;28;20698;-71
2023/10/25 02:29:03;;;;;;;2.73;1.50;;;;;;;11.18;100.00;95225.72;5038222;28;20207;-73
2023/10/25 02:31:33;;;;;;;3.10;1.63;;;;;;;11.16;100.00;95217.22;5037299;28;20208;-71
2023/10/25 02:34:00;;;;;;;2.27;1.33;;;;;;;11.12;100.00;95217.81;5038245;28;20233;-71
2023/10/25 02:36:26;;;;;;;3.13;1.40;;;;;;;11.06;100.00;95230.00;5037191;28;20201;-71
2023/10/25 02:38:53;;;;;;;2.20;1.60;;;;;;;11.05;100.00;95232.84;5038341;28;20205;-70
2023/10/25 02:41:19;;;;;;;2.67;1.50;;;;;;;11.02;100.00;95228.81;5037204;28;20201;-70
2023/10/25 02:43:46;;;;;;;1.97;1.57;;;;;;;10.90;100.00;95224.34;5038212;28;20232;-72
2023/10/25 02:46:13;;;;;;;2.03;1.40;;;;;;;10.86;100.00;95222.28;5037797;28;20224;-72
2023/10/25 02:48:41;;;;;;;1.80;1.20;;;;;;;10.95;100.00;95220.06;5037868;28;20896;-72
2023/10/25 02:51:08;;;;;;;1.70;1.33;;;;;;;10.86;100.00;95219.66;5036826;28;20208;-71
2023/10/25 02:53:34;;;;;;;1.43;0.90;;;;;;;10.85;100.00;95225.97;5035705;28;20216;-71
2023/10/25 02:56:02;;;;;;;1.60;1.20;;;;;;;10.85;100.00;95225.97;5036462;28;20198;-71
2023/10/25 02:58:28;;;;;;;1.40;0.97;;;;;;;10.74;100.00;95216.81;5037307;28;20288;-70
2023/10/25 03:00:56;;;;;;;1.53;1.10;;;;;;;10.79;100.00;95213.59;5037218;28;20570;-70
2023/10/25 03:03:22;;;;;;;1.53;1.13;;;;;;;10.86;100.00;95214.38;5037421;28;20232;-70
2023/10/25 03:05:50;;;;;;;1.90;1.30;;;;;;;11.44;100.00;95212.47;5037744;28;20227;-72
2023/10/25 03:08:17;;;;;;;2.77;1.70;;;;;;;11.04;100.00;95221.47;5037237;28;20202;-70
2023/10/25 03:10:43;;;;;;;3.33;2.13;;;;;;;11.05;100.00;95215.19;5037186;28;20197;-71
2023/10/25 03:13:10;;;;;;;3.60;2.10;;;;;;;11.04;100.00;95213.56;5037065;28;20210;-72
2023/10/25 03:15:36;;;;;;;3.23;2.07;;;;;;;11.11;100.00;95214.41;5037241;28;20225;-70
2023/10/25 03:18:03;;;;;;;5.13;2.27;;;;;;;11.13;100.00;95203.63;5036977;28;20201;-71
2023/10/25 03:20:30;;;;;;;3.60;2.33;;;;;;;11.14;100.00;95207.91;5036988;28;20208;-70
2023/10/25 03:22:58;;;;;;;3.73;1.80;;;;;;;11.33;100.00;95202.59;5036886;28;20225;-71
2023/10/25 03:25:24;;;;;;;3.33;1.77;;;;;;;11.17;100.00;95205.66;5037113;28;20221;-70
2023/10/25 03:27:51;;;;;;;3.40;2.00;;;;;;;11.17;100.00;95200.38;5036595;28;20201;-70
2023/10/25 03:30:18;;;;;;;3.23;2.07;;;;;;;11.22;100.00;95187.38;5036645;28;20205;-72
2023/10/25 03:32:45;;;;;;;3.97;1.90;;;;;;;11.20;100.00;95185.97;5036714;28;20247;-70
2023/10/25 03:35:13;;;;;;;2.53;1.57;;;;;;;11.21;100.00;95193.66;5037321;28;20229;-71
2023/10/25 03:37:40;;;;;;;3.97;1.97;;;;;;;11.20;100.00;95197.34;5036071;28;20231;-73
2023/10/25 03:40:09;;;;;;;3.23;1.80;;;;;;;11.28;100.00;95194.47;5036351;28;20205;-70
2023/10/25 03:42:36;;;;;;;2.17;1.80;;;;;;;11.13;100.00;95191.25;5036478;28;20597;-71
2023/10/25 03:45:03;;;;;;;2.60;1.73;;;;;;;11.09;100.00;95190.06;5037683;28;20286;-72
2023/10/25 03:47:30;;;;;;;3.43;1.87;;;;;;;11.14;100.00;95182.34;5036281;28;20205;-72
2023/10/25 03:49:57;;;;;;;3.10;1.90;;;;;;;11.12;100.00;95187.00;5036925;28;21147;-72
2023/10/25 03:52:23;;;;;;;3.23;2.20;;;;;;;11.07;100.00;95189.47;5036570;28;20548;-70
2023/10/25 03:54:50;;;;;;;3.60;1.93;;;;;;;11.08;100.00;95187.63;5036594;28;20231;-72
2023/10/25 03:57:18;;;;;;;5.80;1.87;;;;;;;11.16;100.00;95180.31;5036938;28;20211;-71
2023/10/25 03:59:44;;;;;;;3.03;1.73;;;;;;;11.03;100.00;95174.25;5036601;28;21182;-71
2023/10/25 04:02:11;;;;;;;2.50;1.70;;;;;;;11.35;100.00;95176.00;5035603;28;20239;-70
2023/10/25 04:04:37;;;;;;;2.10;1.43;;;;;;;11.29;100.00;95169.75;5036467;28;20221;-71
2023/10/25 04:07:04;;;;;;;2.60;1.90;;;;;;;11.23;100.00;95170.56;5037245;28;20201;-71
2023/10/25 04:09:31;;;;;;;2.87;1.67;;;;;;;11.23;100.00;95165.28;5036454;28;20197;-72
2023/10/25 04:11:57;;;;;;;2.77;1.80;;;;;;;11.01;100.00;95163.91;5036076;28;20221;-71
2023/10/25 04:14:25;;;;;;;1.97;1.30;;;;;;;11.10;100.00;95160.03;5035810;28;20227;-72
2023/10/25 04:16:52;;;;;;;6.67;1.87;;;;;;;10.93;100.00;95158.84;5036562;28;20204;-70
2023/10/25 04:19:18;;;;;;;2.77;2.10;;;;;;;10.90;100.00;95157.66;5035830;28;20686;-71
2023/10/25 04:21:45;;;;;;;2.10;1.50;;;;;;;10.77;100.00;95147.94;5035759;28;20206;-73
2023/10/25 04:24:11;;;;;;;1.83;1.27;;;;;;;10.80;100.00;95151.97;5036024;28;21191;-73
2023/10/25 04:26:38;;;;;;;1.90;1.47;;;;;;;10.69;100.00;95149.94;5035933;28;20208;-71
2023/10/25 04:29:04;;;;;;;1.77;1.10;;;;;;;10.68;100.00;95145.69;5036156;28;20201;-72
2023/10/25 04:31:32;;;;;;;2.37;1.30;;;;;;;10.51;100.00;95147.13;5036223;28;20196;-71
2023/10/25 04:34:00;;;;;;;2.23;1.13;;;;;;;10.46;100.00;95142.47;5035645;28;20586;-70
2023/10/25 04:36:26;;;;;;;1.40;1.00;;;;;;;10.51;100.00;95144.47;5035441;28;20205;-70
2023/10/25 04:38:53;;;;;;;0.67;0.67;;;;;;;10.41;100.00;95149.34;5035881;28;20697;-72
2023/10/25 04:41:19;;;;;;;1.77;1.07;;;;;;;10.26;100.00;95138.22;5035214;28;20201;-71
2023/10/25 04:43:46;;;;;;;1.07;0.97;;;;;;;10.18;100.00;95138.38;5035452;28;20229;-70
2023/10/25 04:46:14;;;;;;;1.00;0.90;;;;;;;10.22;100.00;95126.47;5036390;28;20570;-70
2023/10/25 04:48:42;;;;;;;2.13;1.40;;;;;;;10.34;100.00;95130.09;5035795;28;20205;-72
2023/10/25 04:51:13;;;;;;;1.50;1.30;;;;;;;10.23;100.00;95132.53;5034340;28;20212;-72
2023/10/25 04:53:39;;;;;;;2.27;1.43;;;;;;;10.31;100.00;95130.53;5035577;28;20201;-72
2023/10/25 04:56:06;;;;;;;1.20;1.00;;;;;;;10.19;100.00;95126.06;5035915;28;20207;-70
2023/10/25 04:58:33;;;;;;;1.40;1.10;;;;;;;10.04;100.00;95128.88;5035681;28;20205;-70
2023/10/25 05:01:00;;;;;;;3.57;1.33;;;;;;;10.04;100.00;95120.97;5035148;28;20446;-72
2023/10/25 05:03:26;;;;;;;3.87;1.73;;;;;;;9.96;100.00;95125.63;5035627;28;20699;-70
2023/10/25 05:05:55;;;;;;;1.20;0.90;;;;;;;10.23;100.00;95128.06;5035013;28;20209;-70
2023/10/25 05:08:22;;;;;;;0.97;0.87;;;;;;;9.96;100.00;95136.94;5035217;28;20201;-71
2023/10/25 05:10:52;;;;;;;0.70;0.63;;;;;;;10.09;100.00;95131.69;5034749;28;20661;-70
2023/10/25 05:13:20;;;;;;;1.47;0.97;;;;;;;9.90;100.00;95126.38;5035754;28;20193;-70
2023/10/25 05:15:46;;;;;;;1.37;1.00;;;;;;;9.89;100.00;95124.75;5035495;28;20224;-70
2023/10/25 05:18:14;;;;;;;3.50;0.93;;;;;;;10.04;100.00;95120.97;5035322;28;20671;-70
2023/10/25 05:20:41;;;;;;;1.67;1.10;;;;;;;9.86;100.00;95128.59;5034770;28;21448;-70
2023/10/25 05:23:11;;;;;;;1.97;1.10;;;;;;;10.09;100.00;95126.44;5034896;28;20221;-73
2023/10/25 05:25:38;;;;;;;3.70;1.87;;;;;;;10.04;100.00;95126.25;5035129;28;20710;-71
2023/10/25 05:28:05;;;;;;;4.27;1.77;;;;;;;10.14;100.00;95121.38;5034929;28;20290;-73
2023/10/25 05:30:32;;;;;;;2.63;1.47;;;;;;;10.28;100.00;95117.75;5035114;28;20200;-73
2023/10/25 05:33:01;;;;;;;3.33;1.37;;;;;;;10.22;100.00;95121.19;5035309;28;20197;-71
2023/10/25 05:35:29;;;;;;;1.60;1.10;;;;;;;10.23;100.00;95117.53;5035859;28;20231;-71
2023/10/25 05:37:56;;;;;;;2.90;1.30;;;;;;;10.08;100.00;95106.41;5034950;28;20202;-71
2023/10/25 05:40:25;;;;;;;3.50;1.80;;;;;;;10.20;100.00;95110.06;5034901;28;20201;-71
2023/10/25 05:42:56;;;;;;;1.50;1.30;;;;;;;10.19;100.00;95111.06;5034370;28;20222;-74
2023/10/25 05:45:22;;;;;;;3.57;1.60;;;;;;;10.06;100.00;95110.25;5035892;28;20228;-71
2023/10/25 05:47:50;;;;;;;2.40;1.27;;;;;;;10.19;100.00;95105.78;5034460;28;20560;-72
2023/10/25 05:50:17;;;;;;;2.73;1.27;;;;;;;10.28;100.00;95115.09;5035550;28;20311;-72
2023/10/25 05:52:45;;;;;;;3.77;1.83;;;;;;;10.24;100.00;95111.25;5034433;28;20733;-70
2023/10/25 05:55:13;;;;;;;1.97;1.20;;;;;;;10.24;100.00;95115.72;5034930;28;20638;-70
2023/10/25 05:57:42;;;;;;;5.93;1.47;;;;;;;10.12;100.00;95117.31;5035026;28;20267;-70
2023/10/25 06:00:09;;;;;;;1.97;1.27;;;;;;;10.01;100.00;95118.72;5035144;28;20206;-73
2023/10/25 06:02:38;;;;;;;2.53;1.20;;;;;;;10.02;100.00;95106.41;5035995;28;20228;-70
2023/10/25 06:05:11;;;;;;;2.37;1.20;;;;;;;10.01;100.00;95102.13;5038524;28;20225;-70
2023/10/25 06:07:38;;;;;;;1.20;0.93;;;;;;;9.85;100.00;95102.47;5038370;28;20209;-73
2023/10/25 06:10:06;;;;;;;3.90;1.40;;;;;;;9.89;100.00;95099.25;5038215;28;20212;-70
2023/10/25 06:12:33;;;;;;;4.00;1.23;;;;;;;9.85;100.00;95103.31;5038820;28;20220;-71
2023/10/25 06:15:04;;;;;;;1.90;1.23;;;;;;;9.91;100.00;95096.41;5038855;28;20244;-70
2023/10/25 06:17:30;;;;;;;2.03;1.37;;;;;;;9.68;100.00;95101.22;5038575;28;20212;-72
2023/10/25 06:19:57;;;;;;;1.27;1.17;;;;;;;9.71;100.00;95103.44;5039105;28;20205;-73
2023/10/25 06:22:23;;;;;;;2.30;1.50;;;;;;;9.75;100.00;95100.25;5037580;28;20201;-70
2023/10/25 06:24:50;;;;;;;3.23;1.70;;;;;;;9.45;100.00;95097.34;5037978;28;20232;-72
2023/10/25 06:27:16;;;;;;;12.20;2.00;;;;;;;9.44;100.00;95099.13;5039318;28;20276;-71
2023/10/25 06:29:43;;;;;;;2.73;1.60;;;;;;;9.55;100.00;95098.56;5037781;28;20757;-71
2023/10/25 06:32:10;;;;;;;3.30;2.10;;;;;;;9.87;100.00;95093.38;5037501;28;20202;-73
2023/10/25 06:34:37;;;;;;;3.57;1.93;;;;;;;9.75;100.00;95081.81;5038077;28;20610;-71
2023/10/25 06:37:04;;;;;;;3.03;1.83;;;;;;;9.85;100.00;95082.25;5039084;28;20197;-73
2023/10/25 06:39:31;;;;;;;2.57;1.73;;;;;;;9.95;100.00;95074.78;5037279;28;21097;-71
2023/10/25 06:41:58;;;;;;;4.83;1.60;;;;;;;9.94;100.00;95078.41;5038096;28;20201;-70
2023/10/25 06:44:26;;;;;;;2.00;1.30;;;;;;;10.01;100.00;95070.56;5038443;28;20684;-70
2023/10/25 06:46:53;;;;;;;2.87;1.80;;;;;;;10.12;100.00;95069.94;5037810;28;20206;-70
2023/10/25 06:49:22;;;;;;;3.03;1.80;;;;;;;10.17;100.00;95076.25;5037250;28;20460;-72
2023/10/25 06:51:49;;;;;;;1.47;1.30;;;;;;;10.19;100.00;95078.66;5036638;28;20865;-73
2023/10/25 06:54:16;;;;;;;3.70;1.80;;;;;;;10.30;100.00;95070.97;5037173;28;20213;-71
2023/10/25 06:56:43;;;;;;;2.57;1.67;;;;;;;10.29;100.00;95081.72;5037361;28;20201;-70
2023/10/25 06:59:10;;;;;;;3.50;2.10;;;;;;;10.37;100.00;95088.38;5038068;28;20212;-70
2023/10/25 07:01:43;;;;;;;3.23;1.87;;;;;;;10.54;100.00;95073.00;5037332;28;20206;-71
2023/10/25 07:04:13;;;;;;;2.37;1.87;;;;;;;10.55;100.00;95070.16;5038049;28;20225;-70
2023/10/25 07:06:45;;;;;;;4.40;2.17;;;;;;;10.63;100.00;95069.91;5038309;28;20215;-72
2023/10/25 07:09:13;;;;;;;4.70;2.33;;;;;;;11.10;100.00;95074.88;5037932;28;20993;-70
2023/10/25 07:11:40;;;;;;;3.50;2.27;;;;;;;11.17;100.00;95078.28;5037006;28;20216;-72
2023/10/25 07:14:07;;;;;;;3.90;2.10;;;;;;;11.10;100.00;95067.78;5037310;28;20217;-70
2023/10/25 07:16:33;;;;;;;3.73;2.20;;;;;;;10.93;100.00;95070.25;5037953;28;20201;-71
2023/10/25 07:19:00;;;;;;;6.17;2.93;;;;;;;10.81;100.00;95064.81;5036875;28;20281;-73
2023/10/25 07:21:26;;;;;;;4.47;2.60;;;;;;;11.26;100.00;95069.13;5036270;28;20292;-70
2023/10/25 07:23:54;;;;;;;7.50;3.00;;;;;;;10.89;100.00;95072.50;5036490;28;20423;-73
2023/10/25 07:26:21;;;;;;;7.43;2.83;;;;;;;10.75;100.00;95075.38;5036691;28;20208;-71
2023/10/25 07:28:47;;;;;;;19.53;4.70;;;;;;;10.57;100.00;95077.84;5036945;28;20723;-70
2023/10/25 07:31:14;;;;;;;5.07;2.77;;;;;;;10.73;100.00;95066.84;5036378;28;20212;-73
2023/10/25 07:33:41;;;;;;;7.07;3.50;;;;;;;10.47;100.00;95074.81;5036989;28;20211;-70
2023/10/25 07:36:08;;;;;;;6.93;3.07;;;;;;;10.55;100.00;95069.31;5037242;28;20690;-70
2023/10/25 07:38:36;;;;;;;5.67;2.87;;;;;;;10.57;100.00;95078.63;5036587;28;20213;-73
2023/10/25 07:41:04;;;;;;;5.40;2.90;;;;;;;10.93;100.00;95058.72;5035404;28;20210;-73
2023/10/25 07:43:30;;;;;;;6.63;3.53;;;;;;;10.85;100.00;95054.69;5036486;28;20221;-71
2023/10/25 07:45:57;;;;;;;5.80;3.13;;;;;;;11.03;100.00;95048.50;5037294;28;20482;-71
2023/10/25 07:48:23;;;;;;;5.23;3.00;;;;;;;11.00;100.00;95051.56;5036174;28;20576;-70
2023/10/25 07:50:50;;;;;;;5.67;3.13;;;;;;;10.96;100.00;95049.59;5035496;28;20215;-71
2023/10/25 07:53:16;;;;;;;11.77;4.17;;;;;;;11.05;100.00;95041.22;5036515;28;20204;-72
2023/10/25 07:55:45;;;;;;;10.53;4.50;;;;;;;11.82;100.00;95034.75;5035630;28;20666;-71
2023/10/25 07:58:14;;;;;;;8.97;3.67;;;;;;;11.69;100.00;95028.75;5035772;28;20608;-71
2023/10/25 08:00:40;;;;;;;8.97;3.67;;;;;;;11.41;100.00;95025.66;5035723;28;20212;-71
2023/10/25 08:03:07;;;;;;;12.40;4.40;;;;;;;11.50;100.00;95013.84;5036294;28;20205;-71
2023/10/25 08:05:33;;;;;;;9.20;3.80;;;;;;;11.67;100.00;95012.31;5036152;28;20235;-73
2023/10/25 08:08:00;;;;;;;9.13;4.30;;;;;;;11.77;100.00;95016.13;5036365;28;20197;-70
2023/10/25 08:10:26;;;;;;;12.27;3.93;;;;;;;11.91;100.00;95022.13;5035318;28;20586;-71
2023/10/25 08:12:53;;;;;;;11.20;4.10;;;;;;;11.88;100.00;95022.56;5034653;28;20209;-73
2023/10/25 08:15:21;;;;;;;14.47;5.03;;;;;;;12.10;100.00;95011.41;5036486;28;20227;-71
2023/10/25 08:17:47;;;;;;;8.57;4.23;;;;;;;12.27;100.00;95015.94;5035558;28;20244;-72
2023/10/25 08:20:14;;;;;;;10.53;4.00;;;;;;;12.18;100.00;95022.50;5035213;28;20205;-71
2023/10/25 08:22:40;;;;;;;7.50;3.67;;;;;;;12.18;100.00;95030.44;5035414;28;20408;-70
2023/10/25 08:25:08;;;;;;;6.80;3.03;;;;;;;12.22;100.00;95031.63;5036211;28;20229;-73
2023/10/25 08:27:35;;;;;;;5.63;2.97;;;;;;;12.19;100.00;95020.66;5034629;28;20209;-73
2023/10/25 08:30:03;;;;;;;5.57;2.87;;;;;;;12.08;100.00;95012.63;5035439;28;20581;-72
2023/10/25 08:32:30;;;;;;;6.67;3.13;;;;;;;12.11;100.00;95001.66;5035919;28;20217;-70
2023/10/25 08:34:57;;;;;;;5.70;3.00;;;;;;;12.16;100.00;95004.47;5035226;28;20315;-72
2023/10/25 08:37:23;;;;;;;7.10;3.70;;;;;;;12.05;100.00;95018.34;5035553;28;20205;-71
2023/10/25 08:39:50;;;;;;;6.47;2.73;;;;;;;12.20;100.00;95022.28;5035740;28;20205;-71
2023/10/25 08:42:17;;;;;;;6.30;3.43;;;;;;;12.42;100.00;95012.94;5034735;28;20212;-72
2023/10/25 08:44:43;;;;;;;8.87;3.90;;;;;;;12.19;100.00;95010.09;5035242;28;20229;-70
2023/10/25 08:47:11;;;;;;;3.70;2.50;;;;;;;12.26;100.00;95005.59;5035762;28;20201;-70
2023/10/25 08:49:39;;;;;;;6.63;3.00;;;;;;;12.47;100.00;94989.31;5034895;28;20279;-70
2023/10/25 08:52:06;;;;;;;9.07;2.87;;;;;;;12.21;100.00;94995.66;5034710;28;20201;-70
2023/10/25 08:54:35;;;;;;;5.10;2.97;;;;;;;12.50;100.00;94991.53;5034696;28;20225;-73
2023/10/25 08:57:03;;;;;;;6.40;3.07;;;;;;;12.15;100.00;94992.28;5034969;28;20205;-71
2023/10/25 08:59:30;;;;;;;5.50;2.97;;;;;;;11.93;100.00;94991.03;5034820;28;20201;-73
2023/10/25 09:01:57;;;;;;;4.77;2.73;;;;;;;12.19;100.00;94988.97;5034547;28;20460;-70
2023/10/25 09:04:24;;;;;;;6.20;3.17;;;;;;;12.01;100.00;94981.00;5035098;28;20247;-70
2023/10/25 09:06:52;;;;;;;7.63;3.10;;;;;;;12.12;100.00;94972.41;5035222;28;20205;-73
2023/10/25 09:09:18;;;;;;;4.80;2.67;;;;;;;12.05;100.00;94978.75;5034120;28;20513;-71
2023/10/25 09:11:46;;;;;;;6.57;3.10;;;;;;;12.16;100.00;94977.00;5034027;28;20217;-73
2023/10/25 09:14:13;;;;;;;4.87;2.83;;;;;;;11.97;100.00;94977.19;5035083;28;20213;-71
2023/10/25 09:16:44;;;;;;;5.33;2.57;;;;;;;12.10;100.00;94978.91;5035336;28;20205;-71
2023/10/25 09:19:11;;;;;;;8.10;3.97;;;;;;;11.96;100.00;94985.31;5034308;28;20551;-71
2023/10/25 09:21:38;;;;;;;4.30;2.50;;;;;;;11.75;100.00;94981.22;5034475;28;20208;-71
2023/10/25 09:24:09;;;;;;;4.77;2.77;;;;;;;12.17;100.00;94981.28;5034171;28;20312;-71
2023/10/25 09:26:39;;;;;;;4.07;2.63;;;;;;;12.15;100.00;94965.88;5034930;28;20235;-71
2023/10/25 09:29:08;;;;;;;5.77;3.20;;;;;;;12.23;100.00;94961.09;5034750;28;20666;-70
2023/10/25 09:31:36;;;;;;;5.10;2.77;;;;;;;12.44;100.00;94950.94;5034313;28;20262;-71
2023/10/25 09:34:08;;;;;;;6.77;3.10;;;;;;;12.74;100.00;94941.28;5034355;28;20611;-71
2023/10/25 09:36:35;;;;;;;4.30;2.60;;;;;;;12.78;100.00;94942.44;5035374;28;20201;-70
2023/10/25 09:39:01;;;;;;;4.53;2.70;;;;;;;13.14;100.00;94922.06;5036851;28;20208;-71
2023/10/25 09:41:33;;;;;;;7.43;4.10;;;;;;;13.45;100.00;94917.34;5038697;28;20201;-71
2023/10/25 09:44:01;;;;;;;6.13;2.80;;;;;;;13.49;100.00;94915.03;5038202;28;20243;-72
2023/10/25 09:46:30;;;;;;;5.53;3.30;;;;;;;13.77;100.00;94913.41;5038876;28;20296;-73
2023/10/25 09:49:03;;;;;;;4.13;2.53;;;;;;;13.82;100.00;94913.50;5038403;28;20487;-72
2023/10/25 09:51:39;;;;;;;5.27;3.23;;;;;;;13.66;100.00;94916.81;5038293;28;20204;-71
2023/10/25 09:54:10;;;;;;;4.93;2.93;;;;;;;13.78;100.00;94908.91;5037883;28;20221;-71
2023/10/25 09:56:39;;;;;;;4.90;2.90;;;;;;;13.84;100.00;94895.56;5038279;28;20631;-72
2023/10/25 09:59:07;;;;;;;5.87;2.97;;;;;;;13.94;100.00;94895.78;5038759;28;20201;-73
2023/10/25 10:01:34;;;;;;;6.00;3.37;;;;;;;13.92;100.00;94887.25;5037722;28;20561;-72
2023/10/25 10:04:09;;;;;;;6.43;3.30;;;;;;;14.14;100.00;94888.34;5038131;28;20229;-71
2023/10/25 10:06:40;;;;;;;8.38;3.30;;;;;;;14.28;100.00;94890.53;5038488;28;20204;-72
2023/10/25 10:09:15;;;;;;;4.95;2.83;;;;;;;14.43;100.00;94880.25;5038701;28;20446;-70
2023/10/25 10:11:48;;;;;;;5.20;2.70;;;;;;;14.41;100.00;94874.38;5037370;28;20212;-72
2023/10/25 10:14:29;;;;;;;4.30;2.60;;;;;;;14.61;100.00;94864.19;5038324;28;20967;-71
2023/10/25 10:17:00;;;;;;;5.63;3.00;;;;;;;14.59;100.00;94860.16;5037887;28;20204;-72
2023/10/25 10:19:26;;;;;;;4.97;2.70;;;;;;;14.29;100.00;94859.53;5037653;28;20193;-71
2023/10/25 10:22:07;;;;;;;3.83;2.40;;;;;;;14.66;100.00;94870.41;5036924;28;20588;-72
2023/10/25 10:24:49;;;;;;;5.43;3.17;;;;;;;14.67;100.00;94869.34;5038856;28;20247;-71
2023/10/25 10:27:19;;;;;;;4.47;2.70;;;;;;;14.63;100.00;94870.88;5037871;28;20691;-70
2023/10/25 10:29:46;;;;;;;4.80;2.63;;;;;;;14.18;100.00;94868.31;5038135;28;20205;-71
2023/10/25 10:32:14;;;;;;;3.97;2.53;;;;;;;14.29;100.00;94862.19;5037224;28;20476;-73
2023/10/25 10:34:45;;;;;;;4.97;2.90;;;;;;;14.65;100.00;94860.06;5037954;28;20255;-71
2023/10/25 10:37:14;;;;;;;5.93;3.10;;;;;;;14.60;100.00;94859.94;5037521;28;20197;-71
2023/10/25 10:40:13;;;;;;;5.97;3.10;;;;;;;14.70;100.00;94855.66;5038009;28;20371;-73
2023/10/25 10:42:42;;;;;;;6.07;3.60;;;;;;;14.64;100.00;94853.94;5037750;28;20560;-71
2023/10/25 10:45:13;;;;;;;5.77;3.17;;;;;;;14.88;100.00;94852.81;5037012;28;20316;-71
2023/10/25 10:47:42;;;;;;;5.33;3.30;;;;;;;15.00;100.00;94837.66;5037323;28;20202;-71
2023/10/25 10:50:10;;;;;;;5.00;3.20;;;;;;;14.70;100.00;94828.31;5036081;28;20479;-73
2023/10/25 10:52:37;;;;;;;5.33;2.97;;;;;;;14.71;100.00;94825.44;5037463;28;20679;-71
2023/10/25 10:55:05;;;;;;;5.57;3.10;;;;;;;14.97;100.00;94813.44;5037693;28;20738;-70
2023/10/25 10:57:32;;;;;;;6.93;3.00;;;;;;;15.35;100.00;94819.72;5037200;28;20201;-73
2023/10/25 11:00:01;;;;;;;6.43;3.20;;;;;;;15.67;100.00;94812.81;5037451;28;20288;-71
2023/10/25 11:02:27;;;;;;;6.35;2.92;;;;;;;15.25;100.00;94819.59;5037290;28;20590;-71
2023/10/25 11:04:54;;;;;;;6.10;3.33;;;;;;;15.45;100.00;94809.28;5036440;28;20237;-72
2023/10/25 11:07:20;;;;;;;4.88;2.92;;;;;;;15.47;100.00;94791.28;5037167;28;20208;-73
2023/10/25 11:09:47;;;;;;;6.72;2.70;;;;;;;15.68;100.00;94787.88;5037742;28;20685;-73
2023/10/25 11:12:14;;;;;;;5.60;2.92;;;;;;;15.76;100.00;94790.94;5036358;28;20205;-71
2023/10/25 11:14:42;;;;;;;6.50;3.13;;;;;;;15.95;100.00;94785.13;5036789;28;20217;-74
2023/10/25 11:17:10;;;;;;;6.10;2.70;;;;;;;16.07;100.00;94787.66;5037161;28;20208;-71
2023/10/25 11:19:36;;;;;;;6.05;2.97;;;;;;;16.08;100.00;94778.66;5037081;28;20382;-71
2023/10/25 11:22:03;;;;;;;5.70;3.05;;;;;;;15.95;100.00;94779.81;5035973;28;20501;-72
2023/10/25 11:24:30;;;;;;;7.90;3.28;;;;;;;16.05;100.00;94779.13;5036774;28;20229;-73
2023/10/25 11:26:57;;;;;;;6.38;3.20;;;;;;;15.88;100.00;94776.53;5036869;28;21269;-70
2023/10/25 11:29:24;;;;;;;5.60;2.85;;;;;;;16.14;100.00;94772.34;5037062;28;20208;-73